Chadron, NE (69337)

5:48 AM MDT on September 18, 2014 (GMT -0600)
Chadron Municipal | Change Station
CLOSE
Current Station
Airport
Location: Chadron,
Elevation: 3297 ft
Nearby Weather Stations

Elev 3297 ft 42.84 °N, 103.10 °W | Updated 55 minutes ago

Clear
Clear
49 °F
Feels Like 49 °F
N
5
Wind Variable Wind from WSW

Today
High -- | Low -- °F
--% Chance of Precip.
Yesterday
High -- | Low -- °F
Precip. -- in
6:35 AM 6:56 PM
Waning Crescent, 28% visible
Pressure 29.87 in
Visibility 9.0 miles
Clouds Clear
Dew Point 47 °F
Humidity 93%
Rainfall 0.00 in
Snow Depth Not available.
UV 0 out of 12
Pollen 6.40 out of 12
Air Quality Not available.
Flu Activity Not available.
METAR KCDR 181053Z AUTO 25004KT 9SM CLR 09/08 A2991 RMK AO2 SLP113 T00940083

More Conditions Fewer Conditions

Pressure 29.87 in
Visibility 9.0 miles
Clouds Clear
Dew Point 47 °F
Humidity 93%
Rainfall 0.00 in
Snow Depth Not available.
UV 0 out of 12
Pollen 6.40 out of 12
Air Quality Not available.
Flu Activity Not available.
METAR KCDR 181053Z AUTO 25004KT 9SM CLR 09/08 A2991 RMK AO2 SLP113 T00940083

More Conditions Fewer Conditions

Nowcast | as of 3:45 am MDT on September 18, 2014

Areas of low stratus clouds and patchy fog will develop and spread north across western Nebraska through 6 am. Visibilities will be reduced to less than a half mile at times...especially from Alliance to Sidney. Motorists traveling in these areas...including Interstate 80 and Highway 385 should be alert for rapid changes in visibility. Reduce speeds and increase following distances between vehicles when encountering fog.

×

10-Day Weather Forecast

Almanac

Astronomy

Sep. 18, 2014 Rise Set
Actual Time 6:35 AM MDT 6:56 PM MDT
Civil Twilight 6:07 AM MDT 7:24 PM MDT
Nautical Twilight 5:33 AM MDT 7:58 PM MDT
Astronomical Twilight 4:59 AM MDT 8:32 PM MDT
Moon 1:23 AM MDT 3:54 PM MDT
Length of Visible Light 13h 17m
Length of Day
12h 21m
Tomorrow will be 2m 51s shorter.
Waning Crescent, 28% of the Moon is Illuminated
Today
Waning Crescent
Sep 24
New
Oct 1
First Quarter
Oct 8
Full
Oct 15
Last Quarter

Today's Extremes

State Highs State Lows

Community

WunderPhotos

Upload Photos

1,754,324 photos uploaded!

Nearby

Snow Depth

Station Depth Elevation
No new snow has been reported.

Earthquake Activity

City Distance Mag. Time & Date
No recent earthquake activity has been reported nearby.
Minimum magnitude displayed is 2.5.

Coastal Water Temperatures

Place Temperature
No Stations Reporting

Nearby Weather Stations